sensor_id;sensor_type;location;lat;lon;timestamp;P1;durP1;ratioP1;P2;durP2;ratioP2
16727;SDS011;8482;54.396;18.590;2022-08-19T00:01:38;13.10;;;9.82;;
16727;SDS011;8482;54.396;18.590;2022-08-19T00:04:09;12.52;;;9.95;;
16727;SDS011;8482;54.396;18.590;2022-08-19T00:06:39;13.23;;;9.93;;
16727;SDS011;8482;54.396;18.590;2022-08-19T00:09:09;11.82;;;9.63;;
16727;SDS011;8482;54.396;18.590;2022-08-19T00:11:39;12.13;;;9.52;;
16727;SDS011;8482;54.396;18.590;2022-08-19T00:14:07;12.38;;;9.43;;
16727;SDS011;8482;54.396;18.590;2022-08-19T00:16:39;10.88;;;9.27;;
16727;SDS011;8482;54.396;18.590;2022-08-19T00:19:09;14.23;;;10.35;;
16727;SDS011;8482;54.396;18.590;2022-08-19T00:21:37;12.93;;;10.57;;
16727;SDS011;8482;54.396;18.590;2022-08-19T00:24:04;12.73;;;9.48;;
16727;SDS011;8482;54.396;18.590;2022-08-19T00:26:35;14.80;;;9.27;;
16727;SDS011;8482;54.396;18.590;2022-08-19T00:29:02;12.10;;;9.45;;
16727;SDS011;8482;54.396;18.590;2022-08-19T00:31:32;12.85;;;9.35;;
16727;SDS011;8482;54.396;18.590;2022-08-19T00:33:59;13.18;;;9.32;;
16727;SDS011;8482;54.396;18.590;2022-08-19T00:36:25;10.27;;;9.13;;
16727;SDS011;8482;54.396;18.590;2022-08-19T00:38:51;11.98;;;9.52;;
16727;SDS011;8482;54.396;18.590;2022-08-19T00:41:18;13.27;;;10.27;;
16727;SDS011;8482;54.396;18.590;2022-08-19T00:43:56;13.23;;;9.68;;
16727;SDS011;8482;54.396;18.590;2022-08-19T00:46:26;12.20;;;9.63;;
16727;SDS011;8482;54.396;18.590;2022-08-19T00:48:53;11.57;;;9.35;;
16727;SDS011;8482;54.396;18.590;2022-08-19T00:51:22;11.52;;;9.63;;
16727;SDS011;8482;54.396;18.590;2022-08-19T00:53:53;12.48;;;9.82;;
16727;SDS011;8482;54.396;18.590;2022-08-19T00:56:23;12.88;;;9.98;;
16727;SDS011;8482;54.396;18.590;2022-08-19T00:58:52;11.77;;;9.35;;
16727;SDS011;8482;54.396;18.590;2022-08-19T01:01:21;11.55;;;9.52;;
16727;SDS011;8482;54.396;18.590;2022-08-19T01:03:47;12.20;;;9.73;;
16727;SDS011;8482;54.396;18.590;2022-08-19T01:06:13;12.75;;;9.65;;
16727;SDS011;8482;54.396;18.590;2022-08-19T01:08:39;11.40;;;9.63;;
16727;SDS011;8482;54.396;18.590;2022-08-19T01:11:05;12.35;;;10.13;;
16727;SDS011;8482;54.396;18.590;2022-08-19T01:13:33;12.43;;;9.25;;
16727;SDS011;8482;54.396;18.590;2022-08-19T01:16:03;11.40;;;9.55;;
16727;SDS011;8482;54.396;18.590;2022-08-19T01:18:36;12.40;;;10.43;;
16727;SDS011;8482;54.396;18.590;2022-08-19T01:21:08;13.02;;;10.20;;
16727;SDS011;8482;54.396;18.590;2022-08-19T01:23:45;11.90;;;9.98;;
16727;SDS011;8482;54.396;18.590;2022-08-19T01:26:16;10.85;;;9.30;;
16727;SDS011;8482;54.396;18.590;2022-08-19T01:28:47;13.88;;;9.82;;
16727;SDS011;8482;54.396;18.590;2022-08-19T01:31:17;11.32;;;9.05;;
16727;SDS011;8482;54.396;18.590;2022-08-19T01:33:48;11.07;;;9.32;;
16727;SDS011;8482;54.396;18.590;2022-08-19T01:36:24;12.45;;;9.60;;
16727;SDS011;8482;54.396;18.590;2022-08-19T01:38:58;13.50;;;10.18;;
16727;SDS011;8482;54.396;18.590;2022-08-19T01:41:25;12.73;;;10.10;;
16727;SDS011;8482;54.396;18.590;2022-08-19T01:43:52;12.00;;;10.02;;
16727;SDS011;8482;54.396;18.590;2022-08-19T01:46:19;11.93;;;9.77;;
16727;SDS011;8482;54.396;18.590;2022-08-19T01:48:45;12.00;;;9.63;;
16727;SDS011;8482;54.396;18.590;2022-08-19T01:51:12;11.05;;;9.80;;
16727;SDS011;8482;54.396;18.590;2022-08-19T01:53:38;12.63;;;9.73;;
16727;SDS011;8482;54.396;18.590;2022-08-19T01:56:05;11.48;;;9.20;;
16727;SDS011;8482;54.396;18.590;2022-08-19T01:58:40;11.70;;;9.85;;
16727;SDS011;8482;54.396;18.590;2022-08-19T02:01:14;10.35;;;9.15;;
16727;SDS011;8482;54.396;18.590;2022-08-19T02:03:40;11.85;;;9.40;;
16727;SDS011;8482;54.396;18.590;2022-08-19T02:06:06;11.02;;;9.45;;
16727;SDS011;8482;54.396;18.590;2022-08-19T02:08:33;13.80;;;10.10;;
16727;SDS011;8482;54.396;18.590;2022-08-19T02:11:02;13.07;;;10.63;;
16727;SDS011;8482;54.396;18.590;2022-08-19T02:13:29;12.43;;;9.75;;
16727;SDS011;8482;54.396;18.590;2022-08-19T02:15:56;10.95;;;9.07;;
16727;SDS011;8482;54.396;18.590;2022-08-19T02:18:22;10.88;;;9.27;;
16727;SDS011;8482;54.396;18.590;2022-08-19T02:20:48;11.65;;;9.48;;
16727;SDS011;8482;54.396;18.590;2022-08-19T02:23:15;10.82;;;9.73;;
16727;SDS011;8482;54.396;18.590;2022-08-19T02:25:45;13.13;;;9.35;;
16727;SDS011;8482;54.396;18.590;2022-08-19T02:28:13;12.90;;;9.68;;
16727;SDS011;8482;54.396;18.590;2022-08-19T02:30:40;11.55;;;9.20;;
16727;SDS011;8482;54.396;18.590;2022-08-19T02:33:07;12.07;;;10.20;;
16727;SDS011;8482;54.396;18.590;2022-08-19T02:35:33;12.07;;;10.05;;
16727;SDS011;8482;54.396;18.590;2022-08-19T02:37:59;12.35;;;9.70;;
16727;SDS011;8482;54.396;18.590;2022-08-19T02:40:51;12.50;;;9.88;;
16727;SDS011;8482;54.396;18.590;2022-08-19T02:43:23;12.07;;;10.23;;
16727;SDS011;8482;54.396;18.590;2022-08-19T02:45:51;11.73;;;10.02;;
16727;SDS011;8482;54.396;18.590;2022-08-19T02:48:18;11.18;;;9.00;;
16727;SDS011;8482;54.396;18.590;2022-08-19T02:50:47;13.23;;;10.00;;
16727;SDS011;8482;54.396;18.590;2022-08-19T02:53:20;13.30;;;9.98;;
16727;SDS011;8482;54.396;18.590;2022-08-19T02:55:50;11.73;;;9.90;;
16727;SDS011;8482;54.396;18.590;2022-08-19T02:58:17;11.27;;;9.10;;
16727;SDS011;8482;54.396;18.590;2022-08-19T03:00:45;11.45;;;9.68;;
16727;SDS011;8482;54.396;18.590;2022-08-19T03:03:18;12.57;;;10.00;;
16727;SDS011;8482;54.396;18.590;2022-08-19T03:05:45;12.52;;;9.82;;
16727;SDS011;8482;54.396;18.590;2022-08-19T03:08:12;12.25;;;9.75;;
16727;SDS011;8482;54.396;18.590;2022-08-19T03:10:49;11.02;;;9.13;;
16727;SDS011;8482;54.396;18.590;2022-08-19T03:13:17;11.45;;;9.63;;
16727;SDS011;8482;54.396;18.590;2022-08-19T03:15:44;13.43;;;9.80;;
16727;SDS011;8482;54.396;18.590;2022-08-19T03:18:12;12.10;;;9.52;;
16727;SDS011;8482;54.396;18.590;2022-08-19T03:20:41;11.43;;;9.32;;
16727;SDS011;8482;54.396;18.590;2022-08-19T03:23:15;13.43;;;9.60;;
16727;SDS011;8482;54.396;18.590;2022-08-19T03:25:47;9.88;;;8.65;;
16727;SDS011;8482;54.396;18.590;2022-08-19T03:28:15;10.52;;;9.35;;
16727;SDS011;8482;54.396;18.590;2022-08-19T03:30:42;12.30;;;9.32;;
16727;SDS011;8482;54.396;18.590;2022-08-19T03:33:22;12.18;;;9.73;;
16727;SDS011;8482;54.396;18.590;2022-08-19T03:36:03;11.80;;;9.82;;
16727;SDS011;8482;54.396;18.590;2022-08-19T03:38:42;12.10;;;9.52;;
16727;SDS011;8482;54.396;18.590;2022-08-19T03:41:14;11.25;;;9.52;;
16727;SDS011;8482;54.396;18.590;2022-08-19T03:43:43;11.30;;;9.30;;
16727;SDS011;8482;54.396;18.590;2022-08-19T03:46:13;12.45;;;10.25;;
16727;SDS011;8482;54.396;18.590;2022-08-19T03:48:46;13.13;;;10.27;;
16727;SDS011;8482;54.396;18.590;2022-08-19T03:51:18;12.02;;;9.95;;
16727;SDS011;8482;54.396;18.590;2022-08-19T03:53:51;12.85;;;9.88;;
16727;SDS011;8482;54.396;18.590;2022-08-19T03:56:20;13.40;;;9.80;;
16727;SDS011;8482;54.396;18.590;2022-08-19T03:58:47;11.25;;;9.35;;
16727;SDS011;8482;54.396;18.590;2022-08-19T04:01:15;11.43;;;9.57;;
16727;SDS011;8482;54.396;18.590;2022-08-19T04:03:44;12.90;;;9.65;;
16727;SDS011;8482;54.396;18.590;2022-08-19T04:06:17;12.50;;;9.90;;
16727;SDS011;8482;54.396;18.590;2022-08-19T04:08:46;11.48;;;10.00;;
16727;SDS011;8482;54.396;18.590;2022-08-19T04:11:17;12.18;;;9.65;;
16727;SDS011;8482;54.396;18.590;2022-08-19T04:13:46;11.43;;;9.88;;
16727;SDS011;8482;54.396;18.590;2022-08-19T04:16:14;12.60;;;9.80;;
16727;SDS011;8482;54.396;18.590;2022-08-19T04:18:40;12.70;;;10.10;;
16727;SDS011;8482;54.396;18.590;2022-08-19T04:21:07;11.50;;;9.65;;
16727;SDS011;8482;54.396;18.590;2022-08-19T04:23:39;12.55;;;8.95;;
16727;SDS011;8482;54.396;18.590;2022-08-19T04:26:05;13.35;;;10.27;;
16727;SDS011;8482;54.396;18.590;2022-08-19T04:28:31;12.38;;;10.45;;
16727;SDS011;8482;54.396;18.590;2022-08-19T04:30:57;12.13;;;10.25;;
16727;SDS011;8482;54.396;18.590;2022-08-19T04:33:24;11.40;;;9.65;;
16727;SDS011;8482;54.396;18.590;2022-08-19T04:35:50;12.93;;;9.65;;
16727;SDS011;8482;54.396;18.590;2022-08-19T04:38:19;12.90;;;10.10;;
16727;SDS011;8482;54.396;18.590;2022-08-19T04:40:49;12.02;;;10.15;;
16727;SDS011;8482;54.396;18.590;2022-08-19T04:43:36;11.65;;;9.45;;
16727;SDS011;8482;54.396;18.590;2022-08-19T04:46:04;10.63;;;9.48;;
16727;SDS011;8482;54.396;18.590;2022-08-19T04:48:32;11.18;;;9.82;;
16727;SDS011;8482;54.396;18.590;2022-08-19T04:50:59;11.65;;;9.52;;
16727;SDS011;8482;54.396;18.590;2022-08-19T04:53:26;13.82;;;10.52;;
16727;SDS011;8482;54.396;18.590;2022-08-19T04:55:56;13.82;;;11.73;;
16727;SDS011;8482;54.396;18.590;2022-08-19T04:58:25;14.80;;;11.90;;
16727;SDS011;8482;54.396;18.590;2022-08-19T05:00:53;13.02;;;11.63;;
16727;SDS011;8482;54.396;18.590;2022-08-19T05:03:19;14.38;;;11.23;;
16727;SDS011;8482;54.396;18.590;2022-08-19T05:05:47;14.43;;;11.27;;
16727;SDS011;8482;54.396;18.590;2022-08-19T05:08:14;13.45;;;11.88;;
16727;SDS011;8482;54.396;18.590;2022-08-19T05:10:45;13.63;;;11.63;;
16727;SDS011;8482;54.396;18.590;2022-08-19T05:13:17;13.18;;;11.15;;
16727;SDS011;8482;54.396;18.590;2022-08-19T05:15:52;14.20;;;10.82;;
16727;SDS011;8482;54.396;18.590;2022-08-19T05:18:21;13.98;;;10.70;;
16727;SDS011;8482;54.396;18.590;2022-08-19T05:21:07;12.57;;;10.55;;
16727;SDS011;8482;54.396;18.590;2022-08-19T05:23:53;13.73;;;10.25;;
16727;SDS011;8482;54.396;18.590;2022-08-19T05:26:19;11.98;;;10.65;;
16727;SDS011;8482;54.396;18.590;2022-08-19T05:28:45;9.82;;;8.80;;
16727;SDS011;8482;54.396;18.590;2022-08-19T05:31:11;11.32;;;9.20;;
16727;SDS011;8482;54.396;18.590;2022-08-19T05:33:37;11.85;;;9.43;;
16727;SDS011;8482;54.396;18.590;2022-08-19T05:36:05;10.90;;;9.52;;
16727;SDS011;8482;54.396;18.590;2022-08-19T05:38:32;11.38;;;9.43;;
16727;SDS011;8482;54.396;18.590;2022-08-19T05:41:00;11.48;;;8.80;;
16727;SDS011;8482;54.396;18.590;2022-08-19T05:43:32;12.20;;;9.07;;
16727;SDS011;8482;54.396;18.590;2022-08-19T05:45:58;10.98;;;9.40;;
16727;SDS011;8482;54.396;18.590;2022-08-19T05:48:24;11.80;;;9.05;;
16727;SDS011;8482;54.396;18.590;2022-08-19T05:50:51;11.23;;;9.10;;
16727;SDS011;8482;54.396;18.590;2022-08-19T05:53:17;10.55;;;8.73;;
16727;SDS011;8482;54.396;18.590;2022-08-19T05:55:44;10.65;;;9.18;;
16727;SDS011;8482;54.396;18.590;2022-08-19T05:58:10;10.23;;;8.48;;
16727;SDS011;8482;54.396;18.590;2022-08-19T06:00:36;9.77;;;8.48;;
16727;SDS011;8482;54.396;18.590;2022-08-19T06:03:03;10.10;;;8.48;;
16727;SDS011;8482;54.396;18.590;2022-08-19T06:05:29;11.00;;;8.70;;
16727;SDS011;8482;54.396;18.590;2022-08-19T06:07:56;11.93;;;8.82;;
16727;SDS011;8482;54.396;18.590;2022-08-19T06:10:23;11.20;;;8.60;;
16727;SDS011;8482;54.396;18.590;2022-08-19T06:12:51;10.32;;;8.02;;
16727;SDS011;8482;54.396;18.590;2022-08-19T06:15:17;9.98;;;7.95;;
16727;SDS011;8482;54.396;18.590;2022-08-19T06:17:43;10.85;;;8.30;;
16727;SDS011;8482;54.396;18.590;2022-08-19T06:20:10;9.80;;;8.27;;
16727;SDS011;8482;54.396;18.590;2022-08-19T06:22:41;10.57;;;8.52;;
16727;SDS011;8482;54.396;18.590;2022-08-19T06:25:11;11.07;;;8.40;;
16727;SDS011;8482;54.396;18.590;2022-08-19T06:27:39;9.98;;;8.27;;
16727;SDS011;8482;54.396;18.590;2022-08-19T06:30:06;9.43;;;7.70;;
16727;SDS011;8482;54.396;18.590;2022-08-19T06:32:33;10.63;;;8.50;;
16727;SDS011;8482;54.396;18.590;2022-08-19T06:34:58;9.52;;;8.00;;
16727;SDS011;8482;54.396;18.590;2022-08-19T06:37:24;10.00;;;8.00;;
16727;SDS011;8482;54.396;18.590;2022-08-19T06:39:50;9.38;;;7.53;;
16727;SDS011;8482;54.396;18.590;2022-08-19T06:42:16;11.38;;;8.18;;
16727;SDS011;8482;54.396;18.590;2022-08-19T06:44:44;10.05;;;7.78;;
16727;SDS011;8482;54.396;18.590;2022-08-19T06:47:15;9.68;;;7.63;;
16727;SDS011;8482;54.396;18.590;2022-08-19T06:49:45;9.18;;;7.30;;
16727;SDS011;8482;54.396;18.590;2022-08-19T06:52:11;9.57;;;7.82;;
16727;SDS011;8482;54.396;18.590;2022-08-19T06:54:37;9.02;;;7.43;;
16727;SDS011;8482;54.396;18.590;2022-08-19T06:57:04;8.43;;;7.15;;
16727;SDS011;8482;54.396;18.590;2022-08-19T06:59:32;9.82;;;7.63;;
16727;SDS011;8482;54.396;18.590;2022-08-19T07:01:59;9.07;;;7.15;;
16727;SDS011;8482;54.396;18.590;2022-08-19T07:04:30;9.65;;;7.57;;
16727;SDS011;8482;54.396;18.590;2022-08-19T07:09:28;9.60;;;7.60;;
16727;SDS011;8482;54.396;18.590;2022-08-19T07:11:54;9.52;;;7.28;;
16727;SDS011;8482;54.396;18.590;2022-08-19T07:14:23;9.88;;;7.63;;
16727;SDS011;8482;54.396;18.590;2022-08-19T07:16:52;10.55;;;7.72;;
16727;SDS011;8482;54.396;18.590;2022-08-19T07:19:20;9.90;;;7.38;;
16727;SDS011;8482;54.396;18.590;2022-08-19T07:21:50;9.65;;;7.57;;
16727;SDS011;8482;54.396;18.590;2022-08-19T07:24:20;9.52;;;7.75;;
16727;SDS011;8482;54.396;18.590;2022-08-19T07:26:49;9.27;;;7.78;;
16727;SDS011;8482;54.396;18.590;2022-08-19T07:29:16;10.10;;;7.47;;
16727;SDS011;8482;54.396;18.590;2022-08-19T07:31:43;9.52;;;7.38;;
16727;SDS011;8482;54.396;18.590;2022-08-19T07:34:10;9.32;;;7.38;;
16727;SDS011;8482;54.396;18.590;2022-08-19T07:36:39;8.57;;;7.20;;
16727;SDS011;8482;54.396;18.590;2022-08-19T07:39:09;9.32;;;7.63;;
16727;SDS011;8482;54.396;18.590;2022-08-19T07:41:40;8.45;;;6.43;;
16727;SDS011;8482;54.396;18.590;2022-08-19T07:44:07;9.88;;;7.65;;
16727;SDS011;8482;54.396;18.590;2022-08-19T07:46:36;9.07;;;7.72;;
16727;SDS011;8482;54.396;18.590;2022-08-19T07:49:09;8.50;;;7.03;;
16727;SDS011;8482;54.396;18.590;2022-08-19T07:51:42;8.95;;;7.03;;
16727;SDS011;8482;54.396;18.590;2022-08-19T07:54:09;10.23;;;7.45;;
16727;SDS011;8482;54.396;18.590;2022-08-19T07:56:36;8.82;;;7.13;;
16727;SDS011;8482;54.396;18.590;2022-08-19T07:59:03;10.25;;;6.80;;
16727;SDS011;8482;54.396;18.590;2022-08-19T08:01:29;8.43;;;6.63;;
16727;SDS011;8482;54.396;18.590;2022-08-19T08:03:56;8.73;;;7.45;;
16727;SDS011;8482;54.396;18.590;2022-08-19T08:06:42;8.10;;;6.70;;
16727;SDS011;8482;54.396;18.590;2022-08-19T08:09:28;8.30;;;6.80;;
16727;SDS011;8482;54.396;18.590;2022-08-19T08:12:04;8.32;;;6.82;;
16727;SDS011;8482;54.396;18.590;2022-08-19T08:14:42;8.30;;;6.70;;
16727;SDS011;8482;54.396;18.590;2022-08-19T08:17:14;8.00;;;6.53;;
16727;SDS011;8482;54.396;18.590;2022-08-19T08:19:43;8.75;;;6.90;;
16727;SDS011;8482;54.396;18.590;2022-08-19T08:22:10;8.63;;;7.40;;
16727;SDS011;8482;54.396;18.590;2022-08-19T08:25:03;8.52;;;6.72;;
16727;SDS011;8482;54.396;18.590;2022-08-19T08:27:36;8.25;;;6.38;;
16727;SDS011;8482;54.396;18.590;2022-08-19T08:30:05;8.45;;;6.70;;
16727;SDS011;8482;54.396;18.590;2022-08-19T08:32:38;7.88;;;6.60;;
16727;SDS011;8482;54.396;18.590;2022-08-19T08:35:07;9.02;;;6.93;;
16727;SDS011;8482;54.396;18.590;2022-08-19T08:37:37;8.65;;;6.63;;
16727;SDS011;8482;54.396;18.590;2022-08-19T08:40:05;7.35;;;6.00;;
16727;SDS011;8482;54.396;18.590;2022-08-19T08:42:45;7.55;;;6.18;;
16727;SDS011;8482;54.396;18.590;2022-08-19T08:45:25;8.30;;;6.70;;
16727;SDS011;8482;54.396;18.590;2022-08-19T08:47:53;8.68;;;7.03;;
16727;SDS011;8482;54.396;18.590;2022-08-19T08:50:29;8.68;;;6.88;;
16727;SDS011;8482;54.396;18.590;2022-08-19T08:53:07;8.68;;;6.82;;
16727;SDS011;8482;54.396;18.590;2022-08-19T08:55:35;8.70;;;7.20;;
16727;SDS011;8482;54.396;18.590;2022-08-19T08:58:06;8.75;;;6.60;;
16727;SDS011;8482;54.396;18.590;2022-08-19T09:00:44;8.15;;;7.00;;
16727;SDS011;8482;54.396;18.590;2022-08-19T09:05:55;8.43;;;7.15;;
16727;SDS011;8482;54.396;18.590;2022-08-19T09:11:08;8.30;;;6.93;;
16727;SDS011;8482;54.396;18.590;2022-08-19T09:16:27;11.18;;;6.70;;
16727;SDS011;8482;54.396;18.590;2022-08-19T09:18:57;8.88;;;7.13;;
16727;SDS011;8482;54.396;18.590;2022-08-19T09:21:27;7.75;;;6.45;;
16727;SDS011;8482;54.396;18.590;2022-08-19T09:23:53;9.15;;;6.38;;
16727;SDS011;8482;54.396;18.590;2022-08-19T09:26:20;8.05;;;6.28;;
16727;SDS011;8482;54.396;18.590;2022-08-19T09:28:48;8.95;;;6.60;;
16727;SDS011;8482;54.396;18.590;2022-08-19T09:31:22;7.75;;;6.05;;
16727;SDS011;8482;54.396;18.590;2022-08-19T09:33:51;8.93;;;7.00;;
16727;SDS011;8482;54.396;18.590;2022-08-19T09:36:22;7.78;;;6.40;;
16727;SDS011;8482;54.396;18.590;2022-08-19T09:38:50;8.85;;;6.72;;
16727;SDS011;8482;54.396;18.590;2022-08-19T09:41:18;8.40;;;6.68;;
16727;SDS011;8482;54.396;18.590;2022-08-19T09:43:48;8.70;;;6.85;;
16727;SDS011;8482;54.396;18.590;2022-08-19T09:46:21;8.60;;;6.05;;
16727;SDS011;8482;54.396;18.590;2022-08-19T09:48:49;8.52;;;6.90;;
16727;SDS011;8482;54.396;18.590;2022-08-19T09:51:17;8.38;;;6.78;;
16727;SDS011;8482;54.396;18.590;2022-08-19T09:53:49;7.78;;;6.60;;
16727;SDS011;8482;54.396;18.590;2022-08-19T09:56:19;7.78;;;6.40;;
16727;SDS011;8482;54.396;18.590;2022-08-19T09:58:47;7.90;;;6.35;;
16727;SDS011;8482;54.396;18.590;2022-08-19T10:01:21;9.15;;;6.05;;
16727;SDS011;8482;54.396;18.590;2022-08-19T10:03:52;7.45;;;5.70;;
16727;SDS011;8482;54.396;18.590;2022-08-19T10:06:22;7.32;;;5.35;;
16727;SDS011;8482;54.396;18.590;2022-08-19T10:08:51;8.57;;;6.43;;
16727;SDS011;8482;54.396;18.590;2022-08-19T10:11:18;8.20;;;5.90;;
16727;SDS011;8482;54.396;18.590;2022-08-19T10:13:45;7.50;;;5.82;;
16727;SDS011;8482;54.396;18.590;2022-08-19T10:16:14;7.53;;;5.78;;
16727;SDS011;8482;54.396;18.590;2022-08-19T10:18:44;6.63;;;5.43;;
16727;SDS011;8482;54.396;18.590;2022-08-19T10:21:11;6.65;;;5.35;;
16727;SDS011;8482;54.396;18.590;2022-08-19T10:23:52;6.90;;;5.00;;
16727;SDS011;8482;54.396;18.590;2022-08-19T10:26:23;8.27;;;5.35;;
16727;SDS011;8482;54.396;18.590;2022-08-19T10:28:54;7.30;;;4.90;;
16727;SDS011;8482;54.396;18.590;2022-08-19T10:31:22;8.30;;;5.32;;
16727;SDS011;8482;54.396;18.590;2022-08-19T10:33:55;9.32;;;5.15;;
16727;SDS011;8482;54.396;18.590;2022-08-19T10:36:28;7.20;;;4.75;;
16727;SDS011;8482;54.396;18.590;2022-08-19T10:39:02;6.60;;;4.72;;
16727;SDS011;8482;54.396;18.590;2022-08-19T10:41:35;6.65;;;4.70;;
16727;SDS011;8482;54.396;18.590;2022-08-19T10:44:04;7.25;;;4.63;;
16727;SDS011;8482;54.396;18.590;2022-08-19T10:46:36;8.60;;;4.88;;
16727;SDS011;8482;54.396;18.590;2022-08-19T10:49:06;7.18;;;5.65;;
16727;SDS011;8482;54.396;18.590;2022-08-19T10:51:34;7.50;;;5.47;;
16727;SDS011;8482;54.396;18.590;2022-08-19T10:54:20;7.53;;;5.13;;
16727;SDS011;8482;54.396;18.590;2022-08-19T10:56:45;6.70;;;5.10;;
16727;SDS011;8482;54.396;18.590;2022-08-19T10:59:18;6.55;;;4.70;;
16727;SDS011;8482;54.396;18.590;2022-08-19T11:01:54;7.35;;;4.78;;
16727;SDS011;8482;54.396;18.590;2022-08-19T11:04:25;6.55;;;4.63;;
16727;SDS011;8482;54.396;18.590;2022-08-19T11:06:51;6.10;;;4.70;;
16727;SDS011;8482;54.396;18.590;2022-08-19T11:09:20;6.38;;;4.72;;
16727;SDS011;8482;54.396;18.590;2022-08-19T11:11:52;6.25;;;4.50;;
16727;SDS011;8482;54.396;18.590;2022-08-19T11:14:19;7.07;;;4.72;;
16727;SDS011;8482;54.396;18.590;2022-08-19T11:16:46;7.45;;;4.93;;
16727;SDS011;8482;54.396;18.590;2022-08-19T11:19:14;7.38;;;5.07;;
16727;SDS011;8482;54.396;18.590;2022-08-19T11:21:47;6.93;;;4.82;;
16727;SDS011;8482;54.396;18.590;2022-08-19T11:24:14;6.35;;;5.07;;
16727;SDS011;8482;54.396;18.590;2022-08-19T11:26:46;6.78;;;5.30;;
16727;SDS011;8482;54.396;18.590;2022-08-19T11:29:14;10.57;;;6.90;;
16727;SDS011;8482;54.396;18.590;2022-08-19T11:31:44;7.32;;;5.63;;
16727;SDS011;8482;54.396;18.590;2022-08-19T11:34:14;6.88;;;5.07;;
16727;SDS011;8482;54.396;18.590;2022-08-19T11:36:45;7.05;;;4.80;;
16727;SDS011;8482;54.396;18.590;2022-08-19T11:39:14;8.18;;;5.25;;
16727;SDS011;8482;54.396;18.590;2022-08-19T11:41:43;6.45;;;4.72;;
16727;SDS011;8482;54.396;18.590;2022-08-19T11:44:08;6.95;;;4.25;;
16727;SDS011;8482;54.396;18.590;2022-08-19T11:46:35;6.60;;;4.97;;
16727;SDS011;8482;54.396;18.590;2022-08-19T11:49:03;7.35;;;4.90;;
16727;SDS011;8482;54.396;18.590;2022-08-19T11:51:32;7.97;;;5.65;;
16727;SDS011;8482;54.396;18.590;2022-08-19T11:53:59;8.05;;;5.72;;
16727;SDS011;8482;54.396;18.590;2022-08-19T11:56:26;6.93;;;4.95;;
16727;SDS011;8482;54.396;18.590;2022-08-19T11:58:53;5.68;;;4.18;;
16727;SDS011;8482;54.396;18.590;2022-08-19T12:01:22;6.00;;;4.40;;
16727;SDS011;8482;54.396;18.590;2022-08-19T12:03:52;6.78;;;4.22;;
16727;SDS011;8482;54.396;18.590;2022-08-19T12:06:21;5.50;;;4.47;;
16727;SDS011;8482;54.396;18.590;2022-08-19T12:08:52;6.55;;;5.00;;
16727;SDS011;8482;54.396;18.590;2022-08-19T12:11:18;5.65;;;4.28;;
16727;SDS011;8482;54.396;18.590;2022-08-19T12:13:44;6.43;;;4.55;;
16727;SDS011;8482;54.396;18.590;2022-08-19T12:16:29;6.35;;;4.30;;
16727;SDS011;8482;54.396;18.590;2022-08-19T12:18:57;7.28;;;5.05;;
16727;SDS011;8482;54.396;18.590;2022-08-19T12:21:28;9.68;;;5.60;;
16727;SDS011;8482;54.396;18.590;2022-08-19T12:23:57;6.97;;;4.97;;
16727;SDS011;8482;54.396;18.590;2022-08-19T12:26:25;6.15;;;4.20;;
16727;SDS011;8482;54.396;18.590;2022-08-19T12:28:53;7.07;;;4.95;;
16727;SDS011;8482;54.396;18.590;2022-08-19T12:31:20;7.53;;;5.47;;
16727;SDS011;8482;54.396;18.590;2022-08-19T12:33:46;6.93;;;5.00;;
16727;SDS011;8482;54.396;18.590;2022-08-19T12:36:13;7.22;;;5.75;;
16727;SDS011;8482;54.396;18.590;2022-08-19T12:38:42;8.95;;;6.10;;
16727;SDS011;8482;54.396;18.590;2022-08-19T12:41:10;8.18;;;5.80;;
16727;SDS011;8482;54.396;18.590;2022-08-19T12:43:38;7.05;;;5.32;;
16727;SDS011;8482;54.396;18.590;2022-08-19T12:46:06;6.85;;;4.68;;
16727;SDS011;8482;54.396;18.590;2022-08-19T12:48:33;6.07;;;4.18;;
16727;SDS011;8482;54.396;18.590;2022-08-19T12:50:59;5.47;;;4.10;;
16727;SDS011;8482;54.396;18.590;2022-08-19T12:53:30;6.60;;;4.80;;
16727;SDS011;8482;54.396;18.590;2022-08-19T12:55:57;6.80;;;4.95;;
16727;SDS011;8482;54.396;18.590;2022-08-19T12:58:24;7.38;;;5.20;;
16727;SDS011;8482;54.396;18.590;2022-08-19T13:00:52;7.97;;;6.03;;
16727;SDS011;8482;54.396;18.590;2022-08-19T13:03:18;7.97;;;4.78;;
16727;SDS011;8482;54.396;18.590;2022-08-19T13:05:43;7.18;;;5.18;;
16727;SDS011;8482;54.396;18.590;2022-08-19T13:08:09;6.20;;;4.88;;
16727;SDS011;8482;54.396;18.590;2022-08-19T13:10:36;6.35;;;4.80;;
16727;SDS011;8482;54.396;18.590;2022-08-19T13:13:04;6.25;;;4.68;;
16727;SDS011;8482;54.396;18.590;2022-08-19T13:15:35;6.85;;;4.75;;
16727;SDS011;8482;54.396;18.590;2022-08-19T13:18:05;6.10;;;4.43;;
16727;SDS011;8482;54.396;18.590;2022-08-19T13:20:35;6.72;;;5.07;;
16727;SDS011;8482;54.396;18.590;2022-08-19T13:23:03;7.97;;;5.30;;
16727;SDS011;8482;54.396;18.590;2022-08-19T13:25:29;7.38;;;5.05;;
16727;SDS011;8482;54.396;18.590;2022-08-19T13:27:56;7.25;;;5.57;;
16727;SDS011;8482;54.396;18.590;2022-08-19T13:30:22;6.85;;;4.93;;
16727;SDS011;8482;54.396;18.590;2022-08-19T13:33:07;12.30;;;5.22;;
16727;SDS011;8482;54.396;18.590;2022-08-19T13:35:37;7.85;;;4.85;;
16727;SDS011;8482;54.396;18.590;2022-08-19T13:38:05;6.82;;;5.03;;
16727;SDS011;8482;54.396;18.590;2022-08-19T13:40:32;6.45;;;5.00;;
16727;SDS011;8482;54.396;18.590;2022-08-19T13:42:59;7.50;;;5.07;;
16727;SDS011;8482;54.396;18.590;2022-08-19T13:45:29;7.05;;;4.53;;
16727;SDS011;8482;54.396;18.590;2022-08-19T13:48:01;5.40;;;4.15;;
16727;SDS011;8482;54.396;18.590;2022-08-19T13:50:33;5.82;;;4.30;;
16727;SDS011;8482;54.396;18.590;2022-08-19T13:53:11;6.03;;;4.25;;
16727;SDS011;8482;54.396;18.590;2022-08-19T13:55:38;9.43;;;5.88;;
16727;SDS011;8482;54.396;18.590;2022-08-19T13:58:06;9.55;;;5.90;;
16727;SDS011;8482;54.396;18.590;2022-08-19T14:00:36;7.60;;;5.43;;
16727;SDS011;8482;54.396;18.590;2022-08-19T14:03:07;7.60;;;5.13;;
16727;SDS011;8482;54.396;18.590;2022-08-19T14:05:33;7.90;;;5.35;;
16727;SDS011;8482;54.396;18.590;2022-08-19T14:07:59;6.20;;;4.80;;
16727;SDS011;8482;54.396;18.590;2022-08-19T14:10:26;7.57;;;4.80;;
16727;SDS011;8482;54.396;18.590;2022-08-19T14:12:56;7.18;;;4.47;;
16727;SDS011;8482;54.396;18.590;2022-08-19T14:15:25;7.00;;;4.80;;
16727;SDS011;8482;54.396;18.590;2022-08-19T14:17:52;8.95;;;5.78;;
16727;SDS011;8482;54.396;18.590;2022-08-19T14:20:19;6.60;;;5.00;;
16727;SDS011;8482;54.396;18.590;2022-08-19T14:22:46;7.95;;;5.40;;
16727;SDS011;8482;54.396;18.590;2022-08-19T14:25:18;9.82;;;5.85;;
16727;SDS011;8482;54.396;18.590;2022-08-19T14:27:51;7.18;;;5.82;;
16727;SDS011;8482;54.396;18.590;2022-08-19T14:30:20;8.70;;;5.95;;
16727;SDS011;8482;54.396;18.590;2022-08-19T14:32:58;8.32;;;5.93;;
16727;SDS011;8482;54.396;18.590;2022-08-19T14:35:27;9.25;;;5.30;;
16727;SDS011;8482;54.396;18.590;2022-08-19T14:37:55;10.10;;;6.00;;
16727;SDS011;8482;54.396;18.590;2022-08-19T14:40:23;7.45;;;5.50;;
16727;SDS011;8482;54.396;18.590;2022-08-19T14:42:56;7.07;;;5.18;;
16727;SDS011;8482;54.396;18.590;2022-08-19T14:45:28;6.30;;;4.80;;
16727;SDS011;8482;54.396;18.590;2022-08-19T14:47:58;14.50;;;8.10;;
16727;SDS011;8482;54.396;18.590;2022-08-19T14:50:25;9.45;;;5.82;;
16727;SDS011;8482;54.396;18.590;2022-08-19T14:52:57;6.55;;;4.55;;
16727;SDS011;8482;54.396;18.590;2022-08-19T14:55:30;7.60;;;5.03;;
16727;SDS011;8482;54.396;18.590;2022-08-19T14:57:57;5.32;;;3.65;;
16727;SDS011;8482;54.396;18.590;2022-08-19T15:00:23;5.75;;;3.63;;
16727;SDS011;8482;54.396;18.590;2022-08-19T15:02:50;5.57;;;3.42;;
16727;SDS011;8482;54.396;18.590;2022-08-19T15:05:18;3.85;;;2.97;;